createdAt,value
2018-03-27T00:00:00.123Z,1.80
2018-03-27T00:01:02.629Z,2.33
2018-03-27T00:02:05.118Z,2.53
2018-03-27T00:03:07.588Z,2.40
2018-03-27T00:04:10.072Z,2.10
2018-03-27T00:05:16.513Z,2.20
2018-03-27T00:06:18.987Z,2.33
2018-03-27T00:07:21.478Z,1.83
2018-03-27T00:08:23.989Z,1.60
2018-03-27T00:09:26.474Z,2.13
2018-03-27T00:10:28.996Z,2.40
2018-03-27T00:11:31.484Z,1.90
2018-03-27T00:12:33.975Z,1.80
2018-03-27T00:13:36.458Z,1.90
2018-03-27T00:14:38.942Z,1.73
2018-03-27T00:15:41.452Z,1.57
2018-03-27T00:16:43.942Z,1.97
2018-03-27T00:17:46.459Z,1.93
2018-03-27T00:18:49.703Z,1.80
2018-03-27T00:19:52.176Z,1.90
2018-03-27T00:20:54.680Z,1.67
2018-03-27T00:21:57.192Z,2.23
2018-03-27T00:22:59.709Z,1.80
2018-03-27T00:24:02.230Z,1.90
2018-03-27T00:25:04.728Z,2.10
2018-03-27T00:26:07.220Z,1.67
2018-03-27T00:27:09.191Z,1.77
2018-03-27T00:28:23.606Z,2.00
2018-03-27T00:29:37.970Z,2.00
2018-03-27T00:30:52.537Z,2.10
2018-03-27T00:32:06.756Z,2.00
2018-03-27T00:33:20.977Z,1.97
2018-03-27T00:34:35.141Z,2.03
2018-03-27T00:35:49.531Z,1.83
2018-03-27T00:37:03.884Z,1.73
2018-03-27T00:38:18.330Z,2.03
2018-03-27T00:39:32.766Z,2.40
2018-03-27T00:40:42.733Z,1.83
2018-03-27T00:43:33.279Z,2.00
2018-03-27T00:44:35.785Z,2.10
2018-03-27T00:45:38.293Z,2.30
2018-03-27T00:46:40.782Z,2.17
2018-03-27T00:47:43.289Z,2.20
2018-03-27T00:48:45.794Z,2.23
2018-03-27T00:49:48.280Z,1.97
2018-03-27T00:50:50.763Z,2.00
2018-03-27T00:51:53.232Z,1.90
2018-03-27T00:52:55.724Z,1.90
2018-03-27T00:53:58.226Z,2.43
2018-03-27T00:55:00.696Z,1.90
2018-03-27T00:56:03.200Z,2.10
2018-03-27T00:57:05.697Z,1.97
2018-03-27T00:58:08.192Z,2.00
2018-03-27T00:59:10.660Z,1.97
2018-03-27T01:00:13.169Z,2.30
2018-03-27T01:01:15.640Z,2.50
2018-03-27T01:02:18.142Z,1.90
2018-03-27T01:03:20.664Z,2.00
2018-03-27T01:04:23.174Z,1.77
2018-03-27T01:05:25.670Z,1.93
2018-03-27T01:06:28.159Z,1.83
2018-03-27T01:07:30.646Z,2.17
2018-03-27T01:08:33.176Z,1.80
2018-03-27T01:09:35.674Z,1.90
2018-03-27T01:10:38.178Z,1.93
2018-03-27T01:11:40.671Z,1.80
2018-03-27T01:12:43.152Z,2.00
2018-03-27T01:13:45.636Z,1.83
2018-03-27T01:14:48.126Z,1.87
2018-03-27T01:15:50.600Z,1.93
2018-03-27T01:16:53.086Z,1.70
2018-03-27T01:17:55.586Z,1.63
2018-03-27T01:18:58.103Z,1.83
2018-03-27T01:20:00.610Z,2.10
2018-03-27T01:21:03.112Z,2.00
2018-03-27T01:22:05.596Z,2.00
2018-03-27T01:23:08.073Z,2.40
2018-03-27T01:24:10.581Z,1.90
2018-03-27T01:25:13.084Z,2.10
2018-03-27T01:26:15.579Z,2.57
2018-03-27T01:27:18.090Z,1.97
2018-03-27T01:28:20.579Z,2.10
2018-03-27T01:29:23.087Z,2.20
2018-03-27T01:30:25.579Z,1.90
2018-03-27T01:31:28.070Z,1.87
2018-03-27T01:32:30.585Z,2.03
2018-03-27T01:33:33.089Z,2.13
2018-03-27T01:34:35.602Z,1.90
2018-03-27T01:35:38.155Z,2.60
2018-03-27T01:36:40.616Z,2.03
2018-03-27T01:37:43.107Z,2.07
2018-03-27T01:38:45.577Z,2.00
2018-03-27T01:39:48.084Z,1.77
2018-03-27T01:40:50.574Z,1.97
2018-03-27T01:41:53.056Z,1.90
2018-03-27T01:42:55.528Z,1.80
2018-03-27T01:43:58.007Z,1.87
2018-03-27T01:45:00.533Z,2.30
2018-03-27T01:46:03.023Z,2.20
2018-03-27T01:47:05.523Z,2.00
2018-03-27T01:48:08.016Z,2.20
2018-03-27T01:49:10.522Z,1.83
2018-03-27T01:50:13.024Z,1.63
2018-03-27T01:51:15.506Z,2.10
2018-03-27T01:52:18.001Z,2.00
2018-03-27T01:53:20.513Z,2.00
2018-03-27T01:54:23.004Z,2.20
2018-03-27T01:55:25.519Z,1.77
2018-03-27T01:56:28.001Z,2.03
2018-03-27T01:57:30.472Z,1.63
2018-03-27T01:58:32.948Z,1.63
2018-03-27T01:59:35.456Z,2.00
2018-03-27T02:00:37.976Z,1.77
2018-03-27T02:01:40.444Z,2.10
2018-03-27T02:02:42.935Z,1.73
2018-03-27T02:03:45.418Z,2.30
2018-03-27T02:04:47.906Z,2.07
2018-03-27T02:05:50.414Z,2.00
2018-03-27T02:06:52.896Z,2.03
2018-03-27T02:07:55.398Z,1.83
2018-03-27T02:08:57.900Z,1.70
2018-03-27T02:10:00.391Z,1.90
2018-03-27T02:11:08.568Z,1.80
2018-03-27T02:12:16.774Z,2.10
2018-03-27T02:13:24.943Z,1.90
2018-03-27T02:14:33.159Z,2.07
2018-03-27T02:15:41.243Z,1.90
2018-03-27T02:16:49.476Z,1.90
2018-03-27T02:17:57.527Z,1.97
2018-03-27T02:19:05.706Z,1.80
2018-03-27T02:20:13.842Z,1.90
2018-03-27T02:21:21.954Z,1.60
2018-03-27T02:22:24.455Z,1.60
2018-03-27T02:23:41.442Z,1.90
2018-03-27T02:24:43.930Z,1.97
2018-03-27T02:25:46.426Z,2.00
2018-03-27T02:26:48.932Z,2.00
2018-03-27T02:27:51.502Z,1.90
2018-03-27T02:28:53.961Z,1.73
2018-03-27T02:29:56.470Z,1.83
2018-03-27T02:30:58.970Z,1.83
2018-03-27T02:32:01.532Z,1.70
2018-03-27T02:33:04.051Z,2.10
2018-03-27T02:34:06.546Z,1.80
2018-03-27T02:35:09.059Z,1.80
2018-03-27T02:36:11.555Z,1.73
2018-03-27T02:37:14.040Z,1.50
2018-03-27T02:38:16.601Z,1.97
2018-03-27T02:39:19.074Z,1.80
2018-03-27T02:40:21.581Z,1.80
2018-03-27T02:41:24.082Z,1.90
2018-03-27T02:42:26.560Z,1.90
2018-03-27T02:43:29.088Z,2.00
2018-03-27T02:44:31.579Z,2.00
2018-03-27T02:45:34.060Z,1.93
2018-03-27T02:46:36.540Z,2.20
2018-03-27T02:47:39.027Z,1.80
2018-03-27T02:48:41.537Z,1.50
2018-03-27T02:49:44.009Z,1.80
2018-03-27T02:50:46.513Z,1.73
2018-03-27T02:51:49.002Z,1.70
2018-03-27T02:52:51.514Z,1.70
2018-03-27T02:53:54.030Z,1.60
2018-03-27T02:54:56.505Z,1.70
2018-03-27T02:55:58.995Z,1.63
2018-03-27T02:57:01.488Z,1.80
2018-03-27T02:58:03.993Z,1.80
2018-03-27T02:59:06.511Z,1.80
2018-03-27T03:00:08.992Z,2.10
2018-03-27T03:01:11.496Z,1.83
2018-03-27T03:02:14.014Z,1.83
2018-03-27T03:03:16.508Z,2.00
2018-03-27T03:04:19.033Z,2.20
2018-03-27T03:05:21.525Z,2.17
2018-03-27T03:06:24.057Z,1.80
2018-03-27T03:07:26.528Z,1.97
2018-03-27T03:08:29.033Z,1.93
2018-03-27T03:09:31.543Z,2.20
2018-03-27T03:10:34.032Z,2.10
2018-03-27T03:11:36.544Z,1.60
2018-03-27T03:12:39.020Z,1.90
2018-03-27T03:13:41.524Z,2.00
2018-03-27T03:14:44.051Z,1.70
2018-03-27T03:15:46.550Z,1.57
2018-03-27T03:16:49.024Z,1.87
2018-03-27T03:17:51.506Z,1.47
2018-03-27T03:18:53.995Z,1.93
2018-03-27T03:19:56.512Z,1.70
2018-03-27T03:20:59.024Z,1.80
2018-03-27T03:22:01.496Z,1.67
2018-03-27T03:23:03.968Z,1.93
2018-03-27T03:24:06.463Z,1.73
2018-03-27T03:25:08.959Z,1.67
2018-03-27T03:26:11.454Z,1.90
2018-03-27T03:27:13.944Z,1.77
2018-03-27T03:28:16.450Z,1.80
2018-03-27T03:29:19.037Z,1.90
2018-03-27T03:30:21.541Z,1.70
2018-03-27T03:31:24.050Z,1.80
2018-03-27T03:32:26.541Z,1.70
2018-03-27T03:33:29.051Z,1.90
2018-03-27T03:34:31.532Z,1.83
2018-03-27T03:35:34.057Z,1.87
2018-03-27T03:36:36.589Z,1.70
2018-03-27T03:37:39.097Z,1.90
2018-03-27T03:38:41.594Z,1.63
2018-03-27T03:39:44.086Z,1.70
2018-03-27T03:40:46.612Z,2.13
2018-03-27T03:41:49.099Z,2.40
2018-03-27T03:42:51.621Z,1.90
2018-03-27T03:43:54.095Z,1.90
2018-03-27T03:44:56.587Z,1.90
2018-03-27T03:45:59.094Z,1.60
2018-03-27T03:47:01.592Z,1.80
2018-03-27T03:48:04.101Z,1.70
2018-03-27T03:49:06.576Z,1.83
2018-03-27T03:50:09.066Z,1.60
2018-03-27T03:51:11.588Z,1.63
2018-03-27T03:52:14.074Z,1.90
2018-03-27T03:53:16.571Z,1.80
2018-03-27T03:54:19.055Z,2.10
2018-03-27T03:55:21.560Z,1.67
2018-03-27T03:56:24.071Z,1.80
2018-03-27T03:57:26.584Z,1.80
2018-03-27T03:58:29.082Z,1.90
2018-03-27T03:59:31.557Z,1.70
2018-03-27T04:00:34.042Z,1.80
2018-03-27T04:01:36.541Z,1.60
2018-03-27T04:02:39.120Z,1.90
2018-03-27T04:03:41.611Z,2.00
2018-03-27T04:04:44.176Z,1.77
2018-03-27T04:05:46.670Z,1.80
2018-03-27T04:06:49.179Z,1.90
2018-03-27T04:07:51.656Z,1.77
2018-03-27T04:08:54.146Z,2.00
2018-03-27T04:09:56.644Z,1.43
2018-03-27T04:10:59.138Z,2.00
2018-03-27T04:12:01.628Z,1.80
2018-03-27T04:13:04.123Z,2.10
2018-03-27T04:14:06.603Z,1.93
2018-03-27T04:15:09.088Z,1.93
2018-03-27T04:16:11.590Z,1.93
2018-03-27T04:17:14.105Z,2.03
2018-03-27T04:18:16.576Z,1.90
2018-03-27T04:19:19.052Z,1.80
2018-03-27T04:20:21.541Z,2.17
2018-03-27T04:21:24.023Z,1.70
2018-03-27T04:22:26.528Z,1.90
2018-03-27T04:23:29.004Z,2.07
2018-03-27T04:24:31.536Z,1.93
2018-03-27T04:25:34.010Z,2.10
2018-03-27T04:26:36.498Z,1.70
2018-03-27T04:27:39.003Z,2.23
2018-03-27T04:28:41.501Z,2.10
2018-03-27T04:29:43.977Z,1.83
2018-03-27T04:30:46.449Z,2.23
2018-03-27T04:31:48.942Z,1.90
2018-03-27T04:32:51.447Z,1.90
2018-03-27T04:33:53.934Z,1.90
2018-03-27T04:34:56.426Z,1.90
2018-03-27T04:35:58.925Z,1.97
2018-03-27T04:37:01.419Z,2.30
2018-03-27T04:38:03.920Z,1.83
2018-03-27T04:39:06.458Z,2.00
2018-03-27T04:40:08.960Z,1.63
2018-03-27T04:41:11.468Z,1.93
2018-03-27T04:42:13.965Z,1.77
2018-03-27T04:43:16.467Z,2.00
2018-03-27T04:44:19.058Z,1.97
2018-03-27T04:45:21.547Z,1.83
2018-03-27T04:46:24.025Z,2.33
2018-03-27T04:47:26.532Z,1.83
2018-03-27T04:48:29.053Z,2.33
2018-03-27T04:49:31.528Z,1.83
2018-03-27T04:50:34.029Z,1.97
2018-03-27T04:51:36.520Z,1.87
2018-03-27T04:52:39.006Z,2.20
2018-03-27T04:53:41.533Z,2.10
2018-03-27T04:54:44.040Z,2.00
2018-03-27T04:55:46.562Z,1.93
2018-03-27T04:56:49.048Z,2.13
2018-03-27T04:57:51.536Z,1.80
2018-03-27T04:58:54.111Z,2.10
2018-03-27T04:59:56.596Z,2.13
2018-03-27T05:00:59.112Z,2.00
2018-03-27T05:02:01.602Z,2.20
2018-03-27T05:03:04.109Z,1.83
2018-03-27T05:04:06.638Z,2.27
2018-03-27T05:05:09.116Z,2.20
2018-03-27T05:06:11.624Z,2.10
2018-03-27T05:07:14.114Z,1.70
2018-03-27T05:08:16.604Z,2.07
2018-03-27T05:09:19.120Z,2.13
2018-03-27T05:10:21.606Z,1.90
2018-03-27T05:11:24.109Z,2.53
2018-03-27T05:12:26.606Z,2.03
2018-03-27T05:13:29.120Z,2.27
2018-03-27T05:14:31.698Z,2.00
2018-03-27T05:15:34.172Z,2.27
2018-03-27T05:16:36.648Z,1.90
2018-03-27T05:17:39.135Z,1.93
2018-03-27T05:18:41.645Z,1.80
2018-03-27T05:19:44.176Z,1.77
2018-03-27T05:20:46.661Z,2.20
2018-03-27T05:21:49.150Z,2.00
2018-03-27T05:22:51.651Z,2.07
2018-03-27T05:23:54.152Z,2.07
2018-03-27T05:24:56.666Z,2.20
2018-03-27T05:25:59.152Z,2.00
2018-03-27T05:27:01.634Z,2.17
2018-03-27T05:28:04.138Z,1.90
2018-03-27T05:29:06.627Z,2.33
2018-03-27T05:30:09.214Z,2.03
2018-03-27T05:31:11.698Z,2.37
2018-03-27T05:32:14.209Z,2.23
2018-03-27T05:33:16.777Z,2.07
2018-03-27T05:34:19.282Z,2.43
2018-03-27T05:35:21.805Z,2.20
2018-03-27T05:36:24.307Z,2.63
2018-03-27T05:37:26.781Z,2.57
2018-03-27T05:38:29.277Z,2.87
2018-03-27T05:39:31.745Z,3.30
2018-03-27T05:40:34.248Z,3.07
2018-03-27T05:41:36.737Z,4.00
2018-03-27T05:42:39.253Z,3.83
2018-03-27T05:43:41.756Z,3.30
2018-03-27T05:44:44.247Z,4.47
2018-03-27T05:45:46.780Z,3.93
2018-03-27T05:46:49.271Z,3.97
2018-03-27T05:47:51.763Z,3.57
2018-03-27T05:48:54.247Z,4.30
2018-03-27T05:49:56.750Z,4.20
2018-03-27T05:50:59.281Z,4.40
2018-03-27T05:52:01.756Z,4.03
2018-03-27T05:53:04.246Z,4.47
2018-03-27T05:54:06.744Z,4.27
2018-03-27T05:55:09.251Z,4.70
2018-03-27T05:56:11.767Z,4.10
2018-03-27T05:57:14.261Z,4.10
2018-03-27T05:58:16.761Z,4.30
2018-03-27T05:59:19.241Z,4.07
2018-03-27T06:00:21.734Z,4.10
2018-03-27T06:01:24.246Z,4.33
2018-03-27T06:02:26.757Z,4.20
2018-03-27T06:03:29.272Z,4.10
2018-03-27T06:04:31.760Z,4.17
2018-03-27T06:05:34.235Z,4.37
2018-03-27T06:06:36.742Z,4.67
2018-03-27T06:07:39.245Z,4.17
2018-03-27T06:08:41.735Z,4.30
2018-03-27T06:09:44.240Z,4.37
2018-03-27T06:10:46.768Z,3.87
2018-03-27T06:11:49.278Z,4.37
2018-03-27T06:12:51.770Z,4.20
2018-03-27T06:13:54.255Z,4.47
2018-03-27T06:14:56.739Z,3.93
2018-03-27T06:15:59.222Z,3.83
2018-03-27T06:17:01.752Z,4.27
2018-03-27T06:18:04.246Z,3.70
2018-03-27T06:19:06.725Z,3.33
2018-03-27T06:20:09.196Z,3.53
2018-03-27T06:21:11.680Z,3.70
2018-03-27T06:22:14.216Z,3.87
2018-03-27T06:23:16.693Z,4.10
2018-03-27T06:24:19.178Z,4.40
2018-03-27T06:25:21.675Z,3.93
2018-03-27T06:26:24.208Z,4.07
2018-03-27T06:27:26.728Z,4.33
2018-03-27T06:28:29.238Z,3.90
2018-03-27T06:29:31.724Z,4.00
2018-03-27T06:30:34.234Z,3.83
2018-03-27T06:31:36.745Z,4.40
2018-03-27T06:32:39.248Z,4.33
2018-03-27T06:33:41.753Z,3.90
2018-03-27T06:34:44.252Z,3.80
2018-03-27T06:35:46.742Z,4.50
2018-03-27T06:36:49.238Z,3.60
2018-03-27T06:37:51.770Z,4.47
2018-03-27T06:38:54.276Z,4.23
2018-03-27T06:39:56.751Z,3.97
2018-03-27T06:40:59.221Z,3.70
2018-03-27T06:42:01.781Z,3.77
2018-03-27T06:43:04.254Z,3.70
2018-03-27T06:44:06.831Z,4.00
2018-03-27T06:45:09.336Z,3.17
2018-03-27T06:46:11.844Z,4.20
2018-03-27T06:47:14.316Z,3.80
2018-03-27T06:48:16.841Z,4.00
2018-03-27T06:49:19.326Z,3.77
2018-03-27T06:50:21.808Z,4.30
2018-03-27T06:51:24.297Z,3.87
2018-03-27T06:52:26.869Z,4.23
2018-03-27T06:53:29.406Z,4.07
2018-03-27T06:54:31.913Z,3.73
2018-03-27T06:55:34.410Z,4.47
2018-03-27T06:56:36.911Z,4.27
2018-03-27T06:57:39.423Z,3.90
2018-03-27T06:58:41.945Z,4.10
2018-03-27T06:59:44.422Z,3.73
2018-03-27T07:00:46.916Z,3.93
2018-03-27T07:01:49.418Z,3.90
2018-03-27T07:02:51.930Z,3.73
2018-03-27T07:03:54.449Z,3.53
2018-03-27T07:04:56.944Z,4.10
2018-03-27T07:05:59.436Z,3.63
2018-03-27T07:07:01.922Z,3.93
2018-03-27T07:08:04.420Z,3.70
2018-03-27T07:09:06.972Z,3.77
2018-03-27T07:10:09.478Z,4.30
2018-03-27T07:11:12.026Z,4.30
2018-03-27T07:12:14.496Z,3.87
2018-03-27T07:13:17.039Z,4.03
2018-03-27T07:14:19.553Z,3.60
2018-03-27T07:15:22.060Z,4.37
2018-03-27T07:16:24.540Z,4.13
2018-03-27T07:17:27.023Z,3.87
2018-03-27T07:18:29.502Z,3.93
2018-03-27T07:19:32.028Z,4.27
2018-03-27T07:20:34.539Z,3.87
2018-03-27T07:21:37.045Z,3.40
2018-03-27T07:22:39.552Z,4.03
2018-03-27T07:23:42.164Z,3.67
2018-03-27T07:24:44.692Z,3.90
2018-03-27T07:25:47.205Z,3.90
2018-03-27T07:26:49.708Z,3.67
2018-03-27T07:27:52.192Z,3.70
2018-03-27T07:28:54.696Z,3.83
2018-03-27T07:29:57.203Z,3.80
2018-03-27T07:30:59.704Z,4.00
2018-03-27T07:32:02.204Z,3.67
2018-03-27T07:33:04.708Z,3.90
2018-03-27T07:34:07.185Z,3.80
2018-03-27T07:35:09.714Z,4.00
2018-03-27T07:36:12.211Z,4.00
2018-03-27T07:37:14.722Z,3.73
2018-03-27T07:38:17.222Z,4.13
2018-03-27T07:39:19.714Z,3.70
2018-03-27T07:40:22.248Z,3.80
2018-03-27T07:41:24.720Z,3.97
2018-03-27T07:42:27.205Z,4.00
2018-03-27T07:43:29.680Z,4.10
2018-03-27T07:44:32.223Z,4.03
2018-03-27T07:45:34.726Z,3.80
2018-03-27T07:46:37.299Z,4.13
2018-03-27T07:47:39.813Z,4.47
2018-03-27T07:48:42.309Z,3.33
2018-03-27T07:49:44.808Z,4.30
2018-03-27T07:50:47.326Z,3.97
2018-03-27T07:51:49.814Z,4.10
2018-03-27T07:52:52.321Z,3.77
2018-03-27T07:53:54.810Z,3.97
2018-03-27T07:54:57.283Z,3.93
2018-03-27T07:55:59.787Z,3.77
2018-03-27T07:57:02.298Z,3.90
2018-03-27T07:58:04.784Z,4.00
2018-03-27T07:59:07.265Z,3.50
2018-03-27T08:00:09.748Z,3.80
2018-03-27T08:01:12.244Z,4.00
2018-03-27T08:02:14.735Z,4.30
2018-03-27T08:03:17.290Z,4.00
2018-03-27T08:04:19.803Z,4.13
2018-03-27T08:05:22.310Z,3.70
2018-03-27T08:06:24.823Z,3.80
2018-03-27T08:07:27.308Z,3.33
2018-03-27T08:08:29.791Z,3.63
2018-03-27T08:09:32.281Z,4.37
2018-03-27T08:10:34.774Z,4.00
2018-03-27T08:11:37.273Z,3.70
2018-03-27T08:12:39.745Z,3.40
2018-03-27T08:13:42.230Z,3.70
2018-03-27T08:14:44.738Z,3.70
2018-03-27T08:15:47.230Z,3.47
2018-03-27T08:16:49.740Z,3.93
2018-03-27T08:17:52.244Z,3.60
2018-03-27T08:18:54.769Z,3.87
2018-03-27T08:19:57.303Z,3.33
2018-03-27T08:20:59.784Z,3.50
2018-03-27T08:22:02.321Z,3.70
2018-03-27T08:23:04.862Z,4.00
2018-03-27T08:24:07.404Z,3.80
2018-03-27T08:25:09.903Z,3.70
2018-03-27T08:26:12.433Z,3.20
2018-03-27T08:27:14.971Z,3.90
2018-03-27T08:28:17.630Z,3.93
2018-03-27T08:29:20.179Z,3.30
2018-03-27T08:30:22.652Z,4.20
2018-03-27T08:31:25.153Z,3.63
2018-03-27T08:32:27.663Z,3.57
2018-03-27T08:33:30.176Z,3.87
2018-03-27T08:34:32.673Z,5.17
2018-03-27T08:35:35.191Z,3.90
2018-03-27T08:36:37.691Z,3.77
2018-03-27T08:37:40.216Z,3.93
2018-03-27T08:38:42.700Z,3.70
2018-03-27T08:39:45.213Z,4.33
2018-03-27T08:40:47.717Z,4.30
2018-03-27T08:41:50.217Z,3.80
2018-03-27T08:42:52.741Z,4.33
2018-03-27T08:43:55.241Z,4.13
2018-03-27T08:44:57.717Z,4.20
2018-03-27T08:46:00.188Z,4.50
2018-03-27T08:47:02.737Z,4.20
2018-03-27T08:48:05.264Z,4.10
2018-03-27T08:49:07.755Z,4.13
2018-03-27T08:50:10.242Z,4.03
2018-03-27T08:51:12.725Z,5.27
2018-03-27T08:52:15.233Z,3.80
2018-03-27T08:53:17.748Z,4.80
2018-03-27T08:54:20.243Z,4.30
2018-03-27T08:55:22.735Z,4.80
2018-03-27T08:56:25.242Z,4.30
2018-03-27T08:57:27.744Z,4.53
2018-03-27T08:58:30.267Z,4.47
2018-03-27T08:59:32.784Z,4.70
2018-03-27T09:00:35.281Z,3.83
2018-03-27T09:01:37.785Z,4.60
2018-03-27T09:02:40.288Z,4.47
2018-03-27T09:03:42.855Z,4.33
2018-03-27T09:04:45.301Z,4.40
2018-03-27T09:05:47.794Z,4.70
2018-03-27T09:06:50.264Z,4.93
2018-03-27T09:07:52.757Z,5.80
2018-03-27T09:08:55.248Z,4.50
2018-03-27T09:09:57.752Z,5.00
2018-03-27T09:11:00.239Z,5.37
2018-03-27T09:12:02.764Z,4.90
2018-03-27T09:13:05.274Z,5.33
2018-03-27T09:14:07.814Z,4.90
2018-03-27T09:15:10.339Z,4.97
2018-03-27T09:16:12.850Z,4.70
2018-03-27T09:17:15.328Z,5.07
2018-03-27T09:18:17.812Z,5.37
2018-03-27T09:19:20.347Z,5.13
2018-03-27T09:20:22.878Z,5.37
2018-03-27T09:21:25.398Z,4.73
2018-03-27T09:22:27.882Z,4.83
2018-03-27T09:23:30.366Z,4.93
2018-03-27T09:24:32.885Z,5.20
2018-03-27T09:25:35.413Z,5.10
2018-03-27T09:26:37.888Z,4.63
2018-03-27T09:27:40.362Z,4.97
2018-03-27T09:28:42.919Z,5.33
2018-03-27T09:29:45.402Z,5.50
2018-03-27T09:30:47.894Z,5.80
2018-03-27T09:31:50.393Z,5.43
2018-03-27T09:32:52.901Z,5.60
2018-03-27T09:33:55.377Z,5.60
2018-03-27T09:34:57.868Z,5.63
2018-03-27T09:36:00.359Z,5.80
2018-03-27T09:37:02.848Z,5.63
2018-03-27T09:38:05.335Z,5.53
2018-03-27T09:39:07.835Z,6.00
2018-03-27T09:40:10.454Z,5.70
2018-03-27T09:41:12.954Z,5.60
2018-03-27T09:42:15.433Z,5.47
2018-03-27T09:43:17.924Z,5.97
2018-03-27T09:44:20.428Z,5.57
2018-03-27T09:45:22.943Z,5.20
2018-03-27T09:46:25.431Z,5.70
2018-03-27T09:47:27.945Z,5.97
2018-03-27T09:48:30.439Z,5.67
2018-03-27T09:49:32.926Z,6.00
2018-03-27T09:50:35.454Z,5.10
2018-03-27T09:51:37.957Z,5.57
2018-03-27T09:52:40.460Z,5.80
2018-03-27T09:53:42.956Z,5.80
2018-03-27T09:54:45.452Z,5.50
2018-03-27T09:55:47.955Z,6.17
2018-03-27T09:56:50.450Z,5.97
2018-03-27T09:57:52.925Z,5.70
2018-03-27T09:58:55.414Z,5.70
2018-03-27T09:59:57.902Z,6.10
2018-03-27T10:01:00.407Z,6.47
2018-03-27T10:02:02.892Z,5.83
2018-03-27T10:03:05.383Z,6.07
2018-03-27T10:04:07.871Z,6.10
2018-03-27T10:05:10.380Z,5.77
2018-03-27T10:06:12.890Z,5.90
2018-03-27T10:07:15.379Z,5.87
2018-03-27T10:08:17.896Z,5.60
2018-03-27T10:09:20.376Z,6.43
2018-03-27T10:10:22.887Z,5.73
2018-03-27T10:11:25.403Z,5.60
2018-03-27T10:12:27.891Z,6.10
2018-03-27T10:13:30.411Z,6.40
2018-03-27T10:14:32.899Z,5.63
2018-03-27T10:15:35.387Z,5.40
2018-03-27T10:16:37.913Z,6.50
2018-03-27T10:17:40.400Z,5.77
2018-03-27T10:18:42.904Z,5.80
2018-03-27T10:19:45.394Z,6.30
2018-03-27T10:20:47.892Z,5.53
2018-03-27T10:21:50.402Z,6.10
2018-03-27T10:22:52.901Z,6.17
2018-03-27T10:23:55.406Z,6.07
2018-03-27T10:24:57.881Z,6.27
2018-03-27T10:26:00.418Z,5.90
2018-03-27T10:27:02.935Z,5.80
2018-03-27T10:28:05.421Z,6.27
2018-03-27T10:29:07.933Z,5.63
2018-03-27T10:30:10.431Z,5.43
2018-03-27T10:31:12.926Z,6.40
2018-03-27T10:32:15.434Z,5.30
2018-03-27T10:33:17.937Z,5.90
2018-03-27T10:34:20.433Z,5.43
2018-03-27T10:35:22.918Z,5.97
2018-03-27T10:36:25.412Z,5.93
2018-03-27T10:37:27.919Z,6.10
2018-03-27T10:38:30.441Z,5.83
2018-03-27T10:39:32.926Z,5.80
2018-03-27T10:40:35.421Z,6.20
2018-03-27T10:41:37.909Z,6.17
2018-03-27T10:42:40.405Z,6.43
2018-03-27T10:43:42.912Z,6.30
2018-03-27T10:44:45.402Z,6.70
2018-03-27T10:45:47.915Z,5.97
2018-03-27T10:46:50.410Z,6.90
2018-03-27T10:47:52.914Z,5.63
2018-03-27T10:48:55.408Z,6.97
2018-03-27T10:49:57.940Z,6.43
2018-03-27T10:51:00.435Z,5.87
2018-03-27T10:52:02.934Z,5.70
2018-03-27T10:53:05.440Z,6.07
2018-03-27T10:54:07.941Z,6.20
2018-03-27T10:55:10.434Z,6.70
2018-03-27T10:56:12.933Z,5.90
2018-03-27T10:57:15.426Z,6.07
2018-03-27T10:58:17.924Z,6.00
2018-03-27T10:59:20.420Z,6.87
2018-03-27T11:00:22.931Z,5.50
2018-03-27T11:01:25.434Z,5.83
2018-03-27T11:02:27.940Z,5.93
2018-03-27T11:03:30.470Z,7.10
2018-03-27T11:04:32.982Z,6.47
2018-03-27T11:05:35.481Z,6.03
2018-03-27T11:06:37.974Z,6.57
2018-03-27T11:07:40.483Z,6.17
2018-03-27T11:08:42.999Z,6.80
2018-03-27T11:09:45.500Z,6.13
2018-03-27T11:10:47.991Z,5.93
2018-03-27T11:11:50.499Z,6.73
2018-03-27T11:12:52.976Z,6.43
2018-03-27T11:13:55.468Z,6.43
2018-03-27T11:14:57.954Z,6.63
2018-03-27T11:16:00.448Z,6.17
2018-03-27T11:17:02.934Z,6.37
2018-03-27T11:18:05.416Z,6.00
2018-03-27T11:19:07.931Z,6.40
2018-03-27T11:20:10.474Z,5.33
2018-03-27T11:21:12.966Z,6.33
2018-03-27T11:22:15.498Z,5.80
2018-03-27T11:23:18.122Z,6.97
2018-03-27T11:24:20.655Z,6.20
2018-03-27T11:25:23.174Z,6.30
2018-03-27T11:26:25.672Z,6.87
2018-03-27T11:27:28.176Z,6.37
2018-03-27T11:28:30.751Z,6.57
2018-03-27T11:29:33.281Z,6.50
2018-03-27T11:30:35.757Z,6.73
2018-03-27T11:31:38.244Z,6.40
2018-03-27T11:32:40.754Z,6.47
2018-03-27T11:33:43.247Z,6.37
2018-03-27T11:34:45.759Z,6.00
2018-03-27T11:35:48.281Z,6.17
2018-03-27T11:36:50.774Z,5.67
2018-03-27T11:37:53.278Z,6.43
2018-03-27T11:38:55.783Z,6.70
2018-03-27T11:39:58.291Z,6.20
2018-03-27T11:41:00.770Z,6.50
2018-03-27T11:42:03.265Z,6.13
2018-03-27T11:43:05.748Z,6.30
2018-03-27T11:44:08.235Z,6.13
2018-03-27T11:45:10.751Z,6.13
2018-03-27T11:46:13.257Z,6.50
2018-03-27T11:47:15.751Z,7.30
2018-03-27T11:48:18.307Z,6.10
2018-03-27T11:49:20.744Z,6.30
2018-03-27T11:50:23.250Z,6.43
2018-03-27T11:51:25.720Z,6.03
2018-03-27T11:52:28.290Z,7.03
2018-03-27T11:53:30.964Z,6.63
2018-03-27T11:54:33.464Z,6.87
2018-03-27T11:55:35.957Z,6.40
2018-03-27T11:56:38.463Z,6.40
2018-03-27T11:57:40.968Z,6.13
2018-03-27T11:58:43.458Z,6.33
2018-03-27T11:59:45.946Z,6.67
2018-03-27T12:00:48.450Z,6.57
2018-03-27T12:01:50.956Z,6.60
2018-03-27T12:02:53.469Z,7.37
2018-03-27T12:03:55.956Z,7.00
2018-03-27T12:04:58.438Z,7.40
2018-03-27T12:06:00.924Z,5.80
2018-03-27T12:07:03.410Z,6.37
2018-03-27T12:08:05.917Z,6.53
2018-03-27T12:09:08.424Z,7.60
2018-03-27T12:10:10.932Z,7.10
2018-03-27T12:11:13.424Z,6.33
2018-03-27T12:12:15.911Z,6.80
2018-03-27T12:13:18.411Z,6.33
2018-03-27T12:14:20.917Z,7.13
2018-03-27T12:15:23.414Z,7.07
2018-03-27T12:16:25.937Z,6.60
2018-03-27T12:17:28.431Z,6.73
2018-03-27T12:18:30.971Z,7.10
2018-03-27T12:19:33.459Z,7.00
2018-03-27T12:20:35.954Z,6.53
2018-03-27T12:21:38.474Z,7.20
2018-03-27T12:22:40.967Z,7.30
2018-03-27T12:23:43.491Z,7.60
2018-03-27T12:24:45.961Z,7.13
2018-03-27T12:25:48.451Z,7.37
2018-03-27T12:26:50.962Z,7.30
2018-03-27T12:27:53.468Z,6.90
2018-03-27T12:28:55.955Z,7.30
2018-03-27T12:29:58.454Z,7.73
2018-03-27T12:31:00.961Z,7.97
2018-03-27T12:32:03.460Z,7.70
2018-03-27T12:33:05.953Z,7.80
2018-03-27T12:34:08.431Z,7.33
2018-03-27T12:35:10.912Z,7.80
2018-03-27T12:36:13.427Z,8.10
2018-03-27T12:37:15.943Z,9.17
2018-03-27T12:38:18.452Z,8.47
2018-03-27T12:39:21.036Z,8.30
2018-03-27T12:40:23.565Z,7.83
2018-03-27T12:41:26.057Z,8.43
2018-03-27T12:42:28.617Z,8.60
2018-03-27T12:43:31.114Z,9.40
2018-03-27T12:44:33.602Z,9.00
2018-03-27T12:45:36.109Z,8.23
2018-03-27T12:46:38.601Z,9.00
2018-03-27T12:47:41.132Z,8.73
2018-03-27T12:48:43.632Z,9.30
2018-03-27T12:49:46.139Z,7.90
2018-03-27T12:50:48.616Z,8.90
2018-03-27T12:51:51.111Z,9.07
2018-03-27T12:52:53.646Z,8.30
2018-03-27T12:53:56.161Z,8.50
2018-03-27T12:54:58.650Z,9.37
2018-03-27T12:56:01.128Z,9.10
2018-03-27T12:57:03.623Z,9.53
2018-03-27T12:58:06.146Z,9.97
2018-03-27T12:59:08.689Z,9.67
2018-03-27T13:00:11.169Z,9.60
2018-03-27T13:01:13.652Z,9.90
2018-03-27T13:02:16.155Z,10.27
2018-03-27T13:03:18.696Z,9.63
2018-03-27T13:04:21.190Z,8.80
2018-03-27T13:05:23.678Z,10.27
2018-03-27T13:06:26.179Z,10.00
2018-03-27T13:07:28.693Z,9.40
2018-03-27T13:08:31.206Z,10.00
2018-03-27T13:09:33.689Z,9.67
2018-03-27T13:10:36.218Z,10.23
2018-03-27T13:11:38.714Z,9.77
2018-03-27T13:12:41.210Z,9.70
2018-03-27T13:13:43.747Z,9.70
2018-03-27T13:14:46.240Z,9.20
2018-03-27T13:15:48.808Z,10.43
2018-03-27T13:16:51.303Z,10.00
2018-03-27T13:17:53.803Z,10.40
2018-03-27T13:18:56.328Z,10.13
2018-03-27T13:19:58.823Z,9.70
2018-03-27T13:21:01.451Z,9.90
2018-03-27T13:22:03.958Z,10.00
2018-03-27T13:23:06.467Z,9.83
2018-03-27T13:24:08.964Z,10.30
2018-03-27T13:25:11.459Z,10.83
2018-03-27T13:26:13.954Z,10.00
2018-03-27T13:27:16.464Z,10.13
2018-03-27T13:28:18.941Z,10.00
2018-03-27T13:29:21.456Z,10.97
2018-03-27T13:30:23.951Z,10.57
2018-03-27T13:31:26.445Z,9.83
2018-03-27T13:32:29.002Z,9.97
2018-03-27T13:33:31.430Z,10.63
2018-03-27T13:34:33.970Z,10.00
2018-03-27T13:35:36.457Z,10.43
2018-03-27T13:36:38.962Z,10.30
2018-03-27T13:37:41.459Z,10.00
2018-03-27T13:38:43.981Z,9.23
2018-03-27T13:39:46.661Z,9.67
2018-03-27T13:40:49.152Z,10.60
2018-03-27T13:41:51.639Z,9.70
2018-03-27T13:42:54.121Z,11.10
2018-03-27T13:43:56.615Z,9.67
2018-03-27T13:44:59.148Z,10.67
2018-03-27T13:46:01.654Z,9.40
2018-03-27T13:47:04.165Z,9.47
2018-03-27T13:48:06.677Z,10.70
2018-03-27T13:49:09.160Z,10.20
2018-03-27T13:50:11.678Z,9.77
2018-03-27T13:51:14.228Z,9.63
2018-03-27T13:52:16.746Z,10.20
2018-03-27T13:53:19.246Z,10.30
2018-03-27T13:54:21.753Z,9.60
2018-03-27T13:55:24.277Z,9.60